sensor_id;sensor_type;location;lat;lon;timestamp;P1;durP1;ratioP1;P2;durP2;ratioP2
23539;SDS011;11947;50.810;4.394;2023-02-22T00:00:14;173.20;;;35.25;;
23539;SDS011;11947;50.810;4.394;2023-02-22T00:02:46;183.90;;;35.50;;
23539;SDS011;11947;50.810;4.394;2023-02-22T00:05:13;122.90;;;34.55;;
23539;SDS011;11947;50.810;4.394;2023-02-22T00:07:43;127.90;;;32.90;;
23539;SDS011;11947;50.810;4.394;2023-02-22T00:10:14;157.23;;;34.47;;
23539;SDS011;11947;50.810;4.394;2023-02-22T00:12:44;358.15;;;40.47;;
23539;SDS011;11947;50.810;4.394;2023-02-22T00:15:12;212.05;;;33.80;;
23539;SDS011;11947;50.810;4.394;2023-02-22T00:17:39;199.43;;;34.50;;
23539;SDS011;11947;50.810;4.394;2023-02-22T00:20:05;1947.35;;;106.45;;
23539;SDS011;11947;50.810;4.394;2023-02-22T00:22:32;147.15;;;34.33;;
23539;SDS011;11947;50.810;4.394;2023-02-22T00:24:58;184.43;;;36.00;;
23539;SDS011;11947;50.810;4.394;2023-02-22T00:27:24;110.45;;;32.70;;
23539;SDS011;11947;50.810;4.394;2023-02-22T00:29:49;1078.35;;;67.82;;
23539;SDS011;11947;50.810;4.394;2023-02-22T00:32:15;1041.50;;;66.53;;
23539;SDS011;11947;50.810;4.394;2023-02-22T00:34:40;197.65;;;33.83;;
23539;SDS011;11947;50.810;4.394;2023-02-22T00:37:08;144.43;;;32.50;;
23539;SDS011;11947;50.810;4.394;2023-02-22T00:39:34;169.32;;;34.15;;
23539;SDS011;11947;50.810;4.394;2023-02-22T00:42:00;187.10;;;34.90;;
23539;SDS011;11947;50.810;4.394;2023-02-22T00:44:26;519.15;;;47.95;;
23539;SDS011;11947;50.810;4.394;2023-02-22T00:46:52;185.05;;;33.55;;
23539;SDS011;11947;50.810;4.394;2023-02-22T00:49:18;198.23;;;34.90;;
23539;SDS011;11947;50.810;4.394;2023-02-22T00:51:43;357.40;;;36.78;;
23539;SDS011;11947;50.810;4.394;2023-02-22T00:54:09;161.23;;;33.63;;
23539;SDS011;11947;50.810;4.394;2023-02-22T00:56:35;166.32;;;33.45;;
23539;SDS011;11947;50.810;4.394;2023-02-22T00:59:04;337.70;;;40.58;;
23539;SDS011;11947;50.810;4.394;2023-02-22T01:01:30;236.75;;;34.85;;
23539;SDS011;11947;50.810;4.394;2023-02-22T01:03:55;202.98;;;34.53;;
23539;SDS011;11947;50.810;4.394;2023-02-22T01:06:21;237.98;;;32.17;;
23539;SDS011;11947;50.810;4.394;2023-02-22T01:08:47;1087.95;;;80.38;;
23539;SDS011;11947;50.810;4.394;2023-02-22T01:11:13;220.93;;;31.23;;
23539;SDS011;11947;50.810;4.394;2023-02-22T01:13:40;192.77;;;31.50;;
23539;SDS011;11947;50.810;4.394;2023-02-22T01:16:06;220.63;;;30.13;;
23539;SDS011;11947;50.810;4.394;2023-02-22T01:18:32;754.10;;;50.50;;
23539;SDS011;11947;50.810;4.394;2023-02-22T01:20:59;363.35;;;34.53;;
23539;SDS011;11947;50.810;4.394;2023-02-22T01:23:26;495.85;;;40.92;;
23539;SDS011;11947;50.810;4.394;2023-02-22T01:25:52;205.55;;;30.15;;
23539;SDS011;11947;50.810;4.394;2023-02-22T01:28:18;174.63;;;31.75;;
23539;SDS011;11947;50.810;4.394;2023-02-22T01:30:43;170.55;;;30.42;;
23539;SDS011;11947;50.810;4.394;2023-02-22T01:33:09;211.73;;;32.45;;
23539;SDS011;11947;50.810;4.394;2023-02-22T01:35:37;95.63;;;27.95;;
23539;SDS011;11947;50.810;4.394;2023-02-22T01:38:06;243.18;;;35.58;;
23539;SDS011;11947;50.810;4.394;2023-02-22T01:40:36;105.50;;;27.77;;
23539;SDS011;11947;50.810;4.394;2023-02-22T01:43:16;79.88;;;28.60;;
23539;SDS011;11947;50.810;4.394;2023-02-22T01:45:45;91.82;;;29.63;;
23539;SDS011;11947;50.810;4.394;2023-02-22T01:48:39;633.55;;;47.97;;
23539;SDS011;11947;50.810;4.394;2023-02-22T01:51:13;83.57;;;26.80;;
23539;SDS011;11947;50.810;4.394;2023-02-22T01:56:18;73.43;;;26.30;;
23539;SDS011;11947;50.810;4.394;2023-02-22T01:58:47;341.40;;;35.30;;
23539;SDS011;11947;50.810;4.394;2023-02-22T02:01:17;264.33;;;30.73;;
23539;SDS011;11947;50.810;4.394;2023-02-22T02:03:44;67.15;;;27.10;;
23539;SDS011;11947;50.810;4.394;2023-02-22T02:06:12;63.65;;;26.27;;
23539;SDS011;11947;50.810;4.394;2023-02-22T02:11:26;155.25;;;30.20;;
23539;SDS011;11947;50.810;4.394;2023-02-22T02:13:53;140.77;;;28.90;;
23539;SDS011;11947;50.810;4.394;2023-02-22T02:16:21;67.47;;;26.55;;
23539;SDS011;11947;50.810;4.394;2023-02-22T02:18:49;402.17;;;37.22;;
23539;SDS011;11947;50.810;4.394;2023-02-22T02:34:52;54.30;;;24.27;;
23539;SDS011;11947;50.810;4.394;2023-02-22T02:37:31;59.80;;;25.65;;
23539;SDS011;11947;50.810;4.394;2023-02-22T02:43:03;119.60;;;26.05;;
23539;SDS011;11947;50.810;4.394;2023-02-22T02:48:34;55.40;;;24.42;;
23539;SDS011;11947;50.810;4.394;2023-02-22T02:51:02;74.13;;;24.88;;
23539;SDS011;11947;50.810;4.394;2023-02-22T02:53:34;54.72;;;23.55;;
23539;SDS011;11947;50.810;4.394;2023-02-22T02:56:02;58.42;;;25.60;;
23539;SDS011;11947;50.810;4.394;2023-02-22T02:58:28;54.72;;;23.63;;
23539;SDS011;11947;50.810;4.394;2023-02-22T03:00:55;55.05;;;24.48;;
23539;SDS011;11947;50.810;4.394;2023-02-22T03:03:41;58.03;;;24.58;;
23539;SDS011;11947;50.810;4.394;2023-02-22T03:06:15;59.05;;;24.60;;
23539;SDS011;11947;50.810;4.394;2023-02-22T03:11:50;56.85;;;23.80;;
23539;SDS011;11947;50.810;4.394;2023-02-22T03:14:31;59.38;;;23.92;;
23539;SDS011;11947;50.810;4.394;2023-02-22T03:19:51;55.03;;;23.80;;
23539;SDS011;11947;50.810;4.394;2023-02-22T03:22:27;515.25;;;40.47;;
23539;SDS011;11947;50.810;4.394;2023-02-22T03:25:06;62.20;;;25.00;;
23539;SDS011;11947;50.810;4.394;2023-02-22T03:30:20;54.65;;;23.52;;
23539;SDS011;11947;50.810;4.394;2023-02-22T03:32:51;66.57;;;25.75;;
23539;SDS011;11947;50.810;4.394;2023-02-22T03:35:23;56.90;;;24.27;;
23539;SDS011;11947;50.810;4.394;2023-02-22T03:37:55;60.45;;;24.85;;
23539;SDS011;11947;50.810;4.394;2023-02-22T03:40:27;59.35;;;25.30;;
23539;SDS011;11947;50.810;4.394;2023-02-22T03:43:45;56.78;;;24.63;;
23539;SDS011;11947;50.810;4.394;2023-02-22T03:45:53;56.95;;;24.73;;
23539;SDS011;11947;50.810;4.394;2023-02-22T03:48:23;56.80;;;23.65;;
23539;SDS011;11947;50.810;4.394;2023-02-22T03:50:59;53.08;;;23.95;;
23539;SDS011;11947;50.810;4.394;2023-02-22T03:53:26;50.97;;;22.67;;
23539;SDS011;11947;50.810;4.394;2023-02-22T03:55:54;56.38;;;25.10;;
23539;SDS011;11947;50.810;4.394;2023-02-22T03:58:22;53.00;;;22.92;;
23539;SDS011;11947;50.810;4.394;2023-02-22T04:00:50;49.40;;;22.88;;
23539;SDS011;11947;50.810;4.394;2023-02-22T04:03:18;49.45;;;22.77;;
23539;SDS011;11947;50.810;4.394;2023-02-22T04:05:44;51.38;;;22.63;;
23539;SDS011;11947;50.810;4.394;2023-02-22T04:08:10;50.60;;;23.13;;
23539;SDS011;11947;50.810;4.394;2023-02-22T04:10:35;50.03;;;21.95;;
23539;SDS011;11947;50.810;4.394;2023-02-22T04:13:02;51.60;;;22.48;;
23539;SDS011;11947;50.810;4.394;2023-02-22T04:15:27;49.42;;;22.73;;
23539;SDS011;11947;50.810;4.394;2023-02-22T04:17:54;53.08;;;22.55;;
23539;SDS011;11947;50.810;4.394;2023-02-22T04:20:20;49.50;;;21.95;;
23539;SDS011;11947;50.810;4.394;2023-02-22T04:22:49;67.00;;;23.88;;
23539;SDS011;11947;50.810;4.394;2023-02-22T04:25:20;47.00;;;21.70;;
23539;SDS011;11947;50.810;4.394;2023-02-22T04:27:47;48.85;;;22.60;;
23539;SDS011;11947;50.810;4.394;2023-02-22T04:30:15;50.55;;;21.88;;
23539;SDS011;11947;50.810;4.394;2023-02-22T04:32:42;50.70;;;22.50;;
23539;SDS011;11947;50.810;4.394;2023-02-22T04:35:07;44.55;;;21.20;;
23539;SDS011;11947;50.810;4.394;2023-02-22T04:37:33;46.08;;;21.55;;
23539;SDS011;11947;50.810;4.394;2023-02-22T04:39:59;46.13;;;21.38;;
23539;SDS011;11947;50.810;4.394;2023-02-22T04:42:26;45.63;;;22.05;;
23539;SDS011;11947;50.810;4.394;2023-02-22T04:44:51;45.90;;;22.08;;
23539;SDS011;11947;50.810;4.394;2023-02-22T04:47:17;45.38;;;20.23;;
23539;SDS011;11947;50.810;4.394;2023-02-22T04:49:43;42.15;;;20.73;;
23539;SDS011;11947;50.810;4.394;2023-02-22T04:52:09;44.13;;;19.92;;
23539;SDS011;11947;50.810;4.394;2023-02-22T04:54:35;45.35;;;21.30;;
23539;SDS011;11947;50.810;4.394;2023-02-22T04:57:01;41.45;;;20.00;;
23539;SDS011;11947;50.810;4.394;2023-02-22T04:59:26;44.88;;;21.48;;
23539;SDS011;11947;50.810;4.394;2023-02-22T05:01:52;41.75;;;20.23;;
23539;SDS011;11947;50.810;4.394;2023-02-22T05:04:18;38.95;;;19.58;;
23539;SDS011;11947;50.810;4.394;2023-02-22T05:06:43;44.22;;;21.17;;
23539;SDS011;11947;50.810;4.394;2023-02-22T05:09:09;43.13;;;20.17;;
23539;SDS011;11947;50.810;4.394;2023-02-22T05:11:35;534.13;;;39.33;;
23539;SDS011;11947;50.810;4.394;2023-02-22T05:14:00;46.10;;;20.40;;
23539;SDS011;11947;50.810;4.394;2023-02-22T05:16:26;42.83;;;19.98;;
23539;SDS011;11947;50.810;4.394;2023-02-22T05:18:51;42.55;;;19.77;;
23539;SDS011;11947;50.810;4.394;2023-02-22T05:21:17;42.65;;;20.30;;
23539;SDS011;11947;50.810;4.394;2023-02-22T05:23:42;39.88;;;19.77;;
23539;SDS011;11947;50.810;4.394;2023-02-22T05:26:08;38.45;;;19.27;;
23539;SDS011;11947;50.810;4.394;2023-02-22T05:28:34;44.00;;;19.35;;
23539;SDS011;11947;50.810;4.394;2023-02-22T05:31:00;37.92;;;19.15;;
23539;SDS011;11947;50.810;4.394;2023-02-22T05:33:25;36.72;;;19.20;;
23539;SDS011;11947;50.810;4.394;2023-02-22T05:35:51;39.20;;;18.85;;
23539;SDS011;11947;50.810;4.394;2023-02-22T05:38:17;46.72;;;19.85;;
23539;SDS011;11947;50.810;4.394;2023-02-22T05:40:42;38.00;;;18.77;;
23539;SDS011;11947;50.810;4.394;2023-02-22T05:43:08;37.47;;;19.15;;
23539;SDS011;11947;50.810;4.394;2023-02-22T05:45:34;42.60;;;19.85;;
23539;SDS011;11947;50.810;4.394;2023-02-22T05:48:00;42.30;;;19.45;;
23539;SDS011;11947;50.810;4.394;2023-02-22T05:50:27;39.85;;;19.80;;
23539;SDS011;11947;50.810;4.394;2023-02-22T05:52:53;41.90;;;20.20;;
23539;SDS011;11947;50.810;4.394;2023-02-22T05:55:20;39.72;;;18.42;;
23539;SDS011;11947;50.810;4.394;2023-02-22T05:57:47;35.90;;;17.83;;
23539;SDS011;11947;50.810;4.394;2023-02-22T06:00:17;34.20;;;17.25;;
23539;SDS011;11947;50.810;4.394;2023-02-22T06:02:52;38.00;;;18.10;;
23539;SDS011;11947;50.810;4.394;2023-02-22T06:05:18;34.80;;;16.67;;
23539;SDS011;11947;50.810;4.394;2023-02-22T06:07:44;34.60;;;17.77;;
23539;SDS011;11947;50.810;4.394;2023-02-22T06:10:10;35.95;;;17.63;;
23539;SDS011;11947;50.810;4.394;2023-02-22T06:12:35;34.03;;;17.52;;
23539;SDS011;11947;50.810;4.394;2023-02-22T06:15:01;33.38;;;17.95;;
23539;SDS011;11947;50.810;4.394;2023-02-22T06:17:27;32.50;;;16.48;;
23539;SDS011;11947;50.810;4.394;2023-02-22T06:19:54;36.92;;;18.45;;
23539;SDS011;11947;50.810;4.394;2023-02-22T06:22:20;32.85;;;16.15;;
23539;SDS011;11947;50.810;4.394;2023-02-22T06:24:45;33.55;;;17.40;;
23539;SDS011;11947;50.810;4.394;2023-02-22T06:27:11;33.80;;;17.25;;
23539;SDS011;11947;50.810;4.394;2023-02-22T06:29:36;31.48;;;16.73;;
23539;SDS011;11947;50.810;4.394;2023-02-22T06:32:02;34.28;;;16.23;;
23539;SDS011;11947;50.810;4.394;2023-02-22T06:34:28;33.50;;;16.80;;
23539;SDS011;11947;50.810;4.394;2023-02-22T06:36:53;35.03;;;16.27;;
23539;SDS011;11947;50.810;4.394;2023-02-22T06:39:19;36.03;;;17.02;;
23539;SDS011;11947;50.810;4.394;2023-02-22T06:41:45;39.88;;;17.45;;
23539;SDS011;11947;50.810;4.394;2023-02-22T06:44:11;31.50;;;16.10;;
23539;SDS011;11947;50.810;4.394;2023-02-22T06:46:38;33.10;;;16.48;;
23539;SDS011;11947;50.810;4.394;2023-02-22T06:49:10;34.90;;;16.48;;
23539;SDS011;11947;50.810;4.394;2023-02-22T06:51:37;33.92;;;16.30;;
23539;SDS011;11947;50.810;4.394;2023-02-22T06:54:03;36.35;;;17.92;;
23539;SDS011;11947;50.810;4.394;2023-02-22T06:56:30;38.65;;;17.25;;
23539;SDS011;11947;50.810;4.394;2023-02-22T06:58:55;39.50;;;18.77;;
23539;SDS011;11947;50.810;4.394;2023-02-22T07:01:21;42.17;;;19.23;;
23539;SDS011;11947;50.810;4.394;2023-02-22T07:03:49;42.75;;;19.55;;
23539;SDS011;11947;50.810;4.394;2023-02-22T07:06:15;43.30;;;19.75;;
23539;SDS011;11947;50.810;4.394;2023-02-22T07:08:40;48.20;;;19.88;;
23539;SDS011;11947;50.810;4.394;2023-02-22T07:11:06;52.83;;;20.38;;
23539;SDS011;11947;50.810;4.394;2023-02-22T07:13:31;59.67;;;22.05;;
23539;SDS011;11947;50.810;4.394;2023-02-22T07:15:57;54.78;;;24.35;;
23539;SDS011;11947;50.810;4.394;2023-02-22T07:18:23;59.75;;;24.52;;
23539;SDS011;11947;50.810;4.394;2023-02-22T07:20:49;56.40;;;24.40;;
23539;SDS011;11947;50.810;4.394;2023-02-22T07:23:15;54.40;;;23.75;;
23539;SDS011;11947;50.810;4.394;2023-02-22T07:25:41;58.05;;;24.92;;
23539;SDS011;11947;50.810;4.394;2023-02-22T07:28:07;63.28;;;26.52;;
23539;SDS011;11947;50.810;4.394;2023-02-22T07:30:35;55.05;;;25.52;;
23539;SDS011;11947;50.810;4.394;2023-02-22T07:33:02;53.08;;;24.83;;
23539;SDS011;11947;50.810;4.394;2023-02-22T07:35:30;55.53;;;23.95;;
23539;SDS011;11947;50.810;4.394;2023-02-22T07:38:00;49.63;;;21.33;;
23539;SDS011;11947;50.810;4.394;2023-02-22T07:40:27;47.53;;;21.73;;
23539;SDS011;11947;50.810;4.394;2023-02-22T07:45:18;45.83;;;21.27;;
23539;SDS011;11947;50.810;4.394;2023-02-22T07:47:45;50.92;;;22.17;;
23539;SDS011;11947;50.810;4.394;2023-02-22T07:50:12;47.25;;;20.73;;
23539;SDS011;11947;50.810;4.394;2023-02-22T07:52:38;57.78;;;22.80;;
23539;SDS011;11947;50.810;4.394;2023-02-22T07:55:04;85.47;;;22.95;;
23539;SDS011;11947;50.810;4.394;2023-02-22T07:57:33;69.68;;;23.23;;
23539;SDS011;11947;50.810;4.394;2023-02-22T07:59:58;64.40;;;22.23;;
23539;SDS011;11947;50.810;4.394;2023-02-22T08:02:24;54.40;;;22.08;;
23539;SDS011;11947;50.810;4.394;2023-02-22T08:04:50;45.50;;;20.33;;
23539;SDS011;11947;50.810;4.394;2023-02-22T08:07:16;40.40;;;19.65;;
23539;SDS011;11947;50.810;4.394;2023-02-22T08:09:41;47.08;;;21.48;;
23539;SDS011;11947;50.810;4.394;2023-02-22T08:12:07;49.83;;;21.75;;
23539;SDS011;11947;50.810;4.394;2023-02-22T08:14:32;45.13;;;20.08;;
23539;SDS011;11947;50.810;4.394;2023-02-22T08:16:58;45.38;;;20.70;;
23539;SDS011;11947;50.810;4.394;2023-02-22T08:19:23;44.00;;;20.50;;
23539;SDS011;11947;50.810;4.394;2023-02-22T08:21:49;48.03;;;20.10;;
23539;SDS011;11947;50.810;4.394;2023-02-22T08:24:15;43.90;;;19.00;;
23539;SDS011;11947;50.810;4.394;2023-02-22T08:26:44;38.75;;;17.65;;
23539;SDS011;11947;50.810;4.394;2023-02-22T08:29:10;37.20;;;17.05;;
23539;SDS011;11947;50.810;4.394;2023-02-22T08:31:38;32.20;;;15.73;;
23539;SDS011;11947;50.810;4.394;2023-02-22T08:34:04;35.75;;;16.88;;
23539;SDS011;11947;50.810;4.394;2023-02-22T08:36:29;38.00;;;17.00;;
23539;SDS011;11947;50.810;4.394;2023-02-22T08:38:57;31.33;;;15.63;;
23539;SDS011;11947;50.810;4.394;2023-02-22T08:41:23;32.78;;;15.35;;
23539;SDS011;11947;50.810;4.394;2023-02-22T08:43:48;33.50;;;15.50;;
23539;SDS011;11947;50.810;4.394;2023-02-22T08:46:15;33.40;;;16.33;;
23539;SDS011;11947;50.810;4.394;2023-02-22T08:48:50;29.00;;;14.65;;
23539;SDS011;11947;50.810;4.394;2023-02-22T08:51:16;32.30;;;15.65;;
23539;SDS011;11947;50.810;4.394;2023-02-22T08:53:42;28.48;;;14.15;;
23539;SDS011;11947;50.810;4.394;2023-02-22T08:56:08;29.48;;;15.20;;
23539;SDS011;11947;50.810;4.394;2023-02-22T08:58:34;28.85;;;14.82;;
23539;SDS011;11947;50.810;4.394;2023-02-22T09:01:00;29.48;;;14.95;;
23539;SDS011;11947;50.810;4.394;2023-02-22T09:03:26;28.00;;;15.27;;
23539;SDS011;11947;50.810;4.394;2023-02-22T09:05:52;32.50;;;15.68;;
23539;SDS011;11947;50.810;4.394;2023-02-22T09:08:18;36.70;;;16.10;;
23539;SDS011;11947;50.810;4.394;2023-02-22T09:10:44;32.05;;;16.13;;
23539;SDS011;11947;50.810;4.394;2023-02-22T09:13:10;35.28;;;16.58;;
23539;SDS011;11947;50.810;4.394;2023-02-22T09:15:36;35.35;;;16.92;;
23539;SDS011;11947;50.810;4.394;2023-02-22T09:18:04;36.58;;;17.58;;
23539;SDS011;11947;50.810;4.394;2023-02-22T09:20:35;37.40;;;17.67;;
23539;SDS011;11947;50.810;4.394;2023-02-22T09:23:01;35.78;;;18.63;;
23539;SDS011;11947;50.810;4.394;2023-02-22T09:25:29;33.92;;;17.80;;
23539;SDS011;11947;50.810;4.394;2023-02-22T09:27:55;34.53;;;17.77;;
23539;SDS011;11947;50.810;4.394;2023-02-22T09:32:57;35.38;;;17.05;;
23539;SDS011;11947;50.810;4.394;2023-02-22T09:35:24;42.70;;;18.42;;
23539;SDS011;11947;50.810;4.394;2023-02-22T09:37:57;40.15;;;17.55;;
23539;SDS011;11947;50.810;4.394;2023-02-22T09:40:24;37.40;;;18.67;;
23539;SDS011;11947;50.810;4.394;2023-02-22T09:43:41;35.00;;;18.73;;
23539;SDS011;11947;50.810;4.394;2023-02-22T09:51:12;39.60;;;19.85;;
23539;SDS011;11947;50.810;4.394;2023-02-22T09:53:42;46.95;;;21.50;;
23539;SDS011;11947;50.810;4.394;2023-02-22T09:56:10;45.50;;;20.83;;
23539;SDS011;11947;50.810;4.394;2023-02-22T09:58:40;44.83;;;21.83;;
23539;SDS011;11947;50.810;4.394;2023-02-22T10:03:57;45.05;;;21.27;;
23539;SDS011;11947;50.810;4.394;2023-02-22T10:06:43;43.83;;;22.00;;
23539;SDS011;11947;50.810;4.394;2023-02-22T10:09:30;45.38;;;22.85;;
23539;SDS011;11947;50.810;4.394;2023-02-22T10:11:59;44.53;;;21.63;;
23539;SDS011;11947;50.810;4.394;2023-02-22T10:17:52;40.80;;;22.27;;
23539;SDS011;11947;50.810;4.394;2023-02-22T10:25:27;46.78;;;24.08;;
23539;SDS011;11947;50.810;4.394;2023-02-22T10:30:31;42.22;;;24.40;;
23539;SDS011;11947;50.810;4.394;2023-02-22T10:35:45;48.22;;;25.30;;
23539;SDS011;11947;50.810;4.394;2023-02-22T10:40:49;51.90;;;26.13;;
23539;SDS011;11947;50.810;4.394;2023-02-22T10:43:20;46.15;;;24.90;;
23539;SDS011;11947;50.810;4.394;2023-02-22T10:45:47;45.50;;;24.95;;
23539;SDS011;11947;50.810;4.394;2023-02-22T10:48:17;48.15;;;25.63;;
23539;SDS011;11947;50.810;4.394;2023-02-22T10:50:45;42.70;;;25.02;;
23539;SDS011;11947;50.810;4.394;2023-02-22T10:53:12;48.00;;;25.52;;
23539;SDS011;11947;50.810;4.394;2023-02-22T10:58:58;50.00;;;25.70;;
23539;SDS011;11947;50.810;4.394;2023-02-22T11:04:17;48.53;;;25.88;;
23539;SDS011;11947;50.810;4.394;2023-02-22T11:06:49;50.85;;;26.83;;
23539;SDS011;11947;50.810;4.394;2023-02-22T11:09:30;47.92;;;26.52;;
23539;SDS011;11947;50.810;4.394;2023-02-22T11:14:53;47.50;;;27.17;;
23539;SDS011;11947;50.810;4.394;2023-02-22T11:17:26;47.33;;;26.50;;
23539;SDS011;11947;50.810;4.394;2023-02-22T11:19:54;46.13;;;27.25;;
23539;SDS011;11947;50.810;4.394;2023-02-22T11:24:47;55.33;;;28.42;;
23539;SDS011;11947;50.810;4.394;2023-02-22T11:27:23;51.03;;;27.08;;
23539;SDS011;11947;50.810;4.394;2023-02-22T11:30:10;47.35;;;28.98;;
23539;SDS011;11947;50.810;4.394;2023-02-22T11:32:58;60.15;;;27.67;;
23539;SDS011;11947;50.810;4.394;2023-02-22T11:35:32;56.33;;;29.00;;
23539;SDS011;11947;50.810;4.394;2023-02-22T11:38:19;46.22;;;27.13;;
23539;SDS011;11947;50.810;4.394;2023-02-22T11:43:44;46.97;;;29.52;;
23539;SDS011;11947;50.810;4.394;2023-02-22T11:46:13;48.15;;;28.08;;
23539;SDS011;11947;50.810;4.394;2023-02-22T11:49:01;49.38;;;29.75;;
23539;SDS011;11947;50.810;4.394;2023-02-22T11:51:37;50.72;;;29.00;;
23539;SDS011;11947;50.810;4.394;2023-02-22T12:06:08;50.05;;;28.77;;
23539;SDS011;11947;50.810;4.394;2023-02-22T12:17:09;45.80;;;27.85;;
23539;SDS011;11947;50.810;4.394;2023-02-22T12:22:31;46.50;;;28.58;;
23539;SDS011;11947;50.810;4.394;2023-02-22T12:27:40;46.15;;;29.30;;
23539;SDS011;11947;50.810;4.394;2023-02-22T12:30:26;47.08;;;28.77;;
23539;SDS011;11947;50.810;4.394;2023-02-22T12:32:59;44.33;;;28.92;;
23539;SDS011;11947;50.810;4.394;2023-02-22T12:35:29;55.13;;;31.90;;
23539;SDS011;11947;50.810;4.394;2023-02-22T12:46:14;49.10;;;32.03;;
23539;SDS011;11947;50.810;4.394;2023-02-22T12:49:09;50.70;;;31.67;;
23539;SDS011;11947;50.810;4.394;2023-02-22T12:52:03;54.50;;;32.55;;
23539;SDS011;11947;50.810;4.394;2023-02-22T12:59:53;72.93;;;39.05;;
23539;SDS011;11947;50.810;4.394;2023-02-22T13:02:27;56.70;;;33.58;;
23539;SDS011;11947;50.810;4.394;2023-02-22T13:04:58;61.92;;;36.08;;
23539;SDS011;11947;50.810;4.394;2023-02-22T13:13:15;60.35;;;35.15;;
23539;SDS011;11947;50.810;4.394;2023-02-22T13:18:42;64.50;;;37.22;;
23539;SDS011;11947;50.810;4.394;2023-02-22T13:21:34;59.38;;;36.20;;
23539;SDS011;11947;50.810;4.394;2023-02-22T13:24:31;64.95;;;38.03;;
23539;SDS011;11947;50.810;4.394;2023-02-22T13:27:18;62.30;;;36.67;;
23539;SDS011;11947;50.810;4.394;2023-02-22T13:29:50;65.15;;;36.95;;
23539;SDS011;11947;50.810;4.394;2023-02-22T13:35:15;59.85;;;35.25;;
23539;SDS011;11947;50.810;4.394;2023-02-22T13:38:16;61.25;;;35.40;;
23539;SDS011;11947;50.810;4.394;2023-02-22T13:43:33;55.50;;;36.13;;
23539;SDS011;11947;50.810;4.394;2023-02-22T13:52:02;61.83;;;36.78;;
23539;SDS011;11947;50.810;4.394;2023-02-22T13:54:43;61.05;;;37.45;;
23539;SDS011;11947;50.810;4.394;2023-02-22T13:57:20;63.80;;;37.65;;
23539;SDS011;11947;50.810;4.394;2023-02-22T13:59:46;66.35;;;38.40;;
23539;SDS011;11947;50.810;4.394;2023-02-22T14:02:32;62.80;;;37.75;;
23539;SDS011;11947;50.810;4.394;2023-02-22T14:05:34;63.28;;;37.35;;
23539;SDS011;11947;50.810;4.394;2023-02-22T14:07:59;66.00;;;38.25;;
23539;SDS011;11947;50.810;4.394;2023-02-22T14:10:47;71.55;;;39.28;;
23539;SDS011;11947;50.810;4.394;2023-02-22T14:13:14;70.05;;;40.55;;
23539;SDS011;11947;50.810;4.394;2023-02-22T14:21:05;68.75;;;39.65;;
23539;SDS011;11947;50.810;4.394;2023-02-22T14:23:37;73.63;;;42.33;;
23539;SDS011;11947;50.810;4.394;2023-02-22T14:29:13;75.43;;;40.47;;
23539;SDS011;11947;50.810;4.394;2023-02-22T14:34:17;74.05;;;42.03;;
23539;SDS011;11947;50.810;4.394;2023-02-22T14:42:36;74.78;;;43.10;;
23539;SDS011;11947;50.810;4.394;2023-02-22T14:50:24;80.57;;;43.90;;
23539;SDS011;11947;50.810;4.394;2023-02-22T14:53:00;78.53;;;43.45;;
23539;SDS011;11947;50.810;4.394;2023-02-22T14:55:31;82.80;;;45.40;;
23539;SDS011;11947;50.810;4.394;2023-02-22T15:00:52;81.32;;;46.65;;
23539;SDS011;11947;50.810;4.394;2023-02-22T15:05:46;81.90;;;45.05;;
23539;SDS011;11947;50.810;4.394;2023-02-22T15:08:14;81.57;;;46.45;;
23539;SDS011;11947;50.810;4.394;2023-02-22T15:10:45;90.07;;;48.80;;
23539;SDS011;11947;50.810;4.394;2023-02-22T15:13:14;84.10;;;47.13;;
23539;SDS011;11947;50.810;4.394;2023-02-22T15:15:52;96.82;;;49.05;;
23539;SDS011;11947;50.810;4.394;2023-02-22T15:20:50;89.63;;;50.60;;
23539;SDS011;11947;50.810;4.394;2023-02-22T15:23:20;95.15;;;50.05;;
23539;SDS011;11947;50.810;4.394;2023-02-22T15:25:48;99.40;;;51.53;;
23539;SDS011;11947;50.810;4.394;2023-02-22T15:28:14;99.80;;;51.05;;
23539;SDS011;11947;50.810;4.394;2023-02-22T15:30:41;100.22;;;49.92;;
23539;SDS011;11947;50.810;4.394;2023-02-22T15:33:14;107.60;;;50.50;;
23539;SDS011;11947;50.810;4.394;2023-02-22T15:35:57;110.95;;;54.75;;
23539;SDS011;11947;50.810;4.394;2023-02-22T15:38:27;93.35;;;48.83;;
23539;SDS011;11947;50.810;4.394;2023-02-22T15:41:00;88.65;;;44.97;;
23539;SDS011;11947;50.810;4.394;2023-02-22T15:43:30;87.70;;;44.38;;
23539;SDS011;11947;50.810;4.394;2023-02-22T15:45:57;91.85;;;45.10;;
23539;SDS011;11947;50.810;4.394;2023-02-22T15:48:24;82.90;;;42.40;;
23539;SDS011;11947;50.810;4.394;2023-02-22T15:51:13;94.00;;;45.85;;
23539;SDS011;11947;50.810;4.394;2023-02-22T15:56:14;105.97;;;50.28;;
23539;SDS011;11947;50.810;4.394;2023-02-22T15:58:50;97.07;;;46.20;;
23539;SDS011;11947;50.810;4.394;2023-02-22T16:01:22;85.88;;;42.70;;
23539;SDS011;11947;50.810;4.394;2023-02-22T16:03:49;95.78;;;46.35;;
23539;SDS011;11947;50.810;4.394;2023-02-22T16:06:26;95.82;;;45.65;;
23539;SDS011;11947;50.810;4.394;2023-02-22T16:08:53;85.05;;;41.80;;
23539;SDS011;11947;50.810;4.394;2023-02-22T16:13:58;93.05;;;43.95;;
23539;SDS011;11947;50.810;4.394;2023-02-22T16:16:27;95.18;;;43.90;;
23539;SDS011;11947;50.810;4.394;2023-02-22T16:22:00;94.47;;;44.63;;
23539;SDS011;11947;50.810;4.394;2023-02-22T16:24:32;92.28;;;43.88;;
23539;SDS011;11947;50.810;4.394;2023-02-22T16:29:37;95.07;;;47.00;;
23539;SDS011;11947;50.810;4.394;2023-02-22T16:32:02;94.28;;;45.83;;
23539;SDS011;11947;50.810;4.394;2023-02-22T16:34:28;97.80;;;45.60;;
23539;SDS011;11947;50.810;4.394;2023-02-22T16:36:54;96.75;;;46.05;;
23539;SDS011;11947;50.810;4.394;2023-02-22T16:39:27;98.57;;;45.33;;
23539;SDS011;11947;50.810;4.394;2023-02-22T16:41:56;104.90;;;47.38;;
23539;SDS011;11947;50.810;4.394;2023-02-22T16:44:23;104.47;;;44.63;;
23539;SDS011;11947;50.810;4.394;2023-02-22T16:46:53;107.20;;;47.25;;
23539;SDS011;11947;50.810;4.394;2023-02-22T16:49:19;107.00;;;47.47;;
23539;SDS011;11947;50.810;4.394;2023-02-22T16:51:48;104.53;;;47.50;;
23539;SDS011;11947;50.810;4.394;2023-02-22T16:54:24;111.43;;;48.08;;
23539;SDS011;11947;50.810;4.394;2023-02-22T16:56:56;97.53;;;45.15;;
23539;SDS011;11947;50.810;4.394;2023-02-22T16:59:26;110.63;;;48.25;;
23539;SDS011;11947;50.810;4.394;2023-02-22T17:01:52;107.72;;;46.55;;
23539;SDS011;11947;50.810;4.394;2023-02-22T17:04:18;106.68;;;48.08;;
23539;SDS011;11947;50.810;4.394;2023-02-22T17:06:49;112.70;;;47.05;;
23539;SDS011;11947;50.810;4.394;2023-02-22T17:09:14;110.32;;;49.25;;
23539;SDS011;11947;50.810;4.394;2023-02-22T17:11:40;114.97;;;50.55;;
23539;SDS011;11947;50.810;4.394;2023-02-22T17:14:07;104.95;;;47.33;;
23539;SDS011;11947;50.810;4.394;2023-02-22T17:16:35;113.10;;;49.78;;
23539;SDS011;11947;50.810;4.394;2023-02-22T17:19:00;120.53;;;49.97;;
23539;SDS011;11947;50.810;4.394;2023-02-22T17:21:28;115.10;;;49.83;;
23539;SDS011;11947;50.810;4.394;2023-02-22T17:23:54;116.43;;;49.10;;
23539;SDS011;11947;50.810;4.394;2023-02-22T17:26:20;108.63;;;50.75;;
23539;SDS011;11947;50.810;4.394;2023-02-22T17:28:46;118.50;;;50.75;;